createdAt,value
2023-02-17T00:00:55.805Z,13.98
2023-02-17T00:03:25.642Z,11.18
2023-02-17T00:05:53.525Z,11.05
2023-02-17T00:08:21.584Z,15.30
2023-02-17T00:10:57.395Z,14.18
2023-02-17T00:13:25.454Z,12.50
2023-02-17T00:15:53.190Z,11.48
2023-02-17T00:18:21.029Z,12.45
2023-02-17T00:20:50.384Z,10.27
2023-02-17T00:23:18.428Z,10.52
2023-02-17T00:25:46.442Z,11.02
2023-02-17T00:28:14.207Z,11.85
2023-02-17T00:30:41.995Z,14.75
2023-02-17T00:33:09.797Z,11.73
2023-02-17T00:35:41.453Z,8.90
2023-02-17T00:38:10.844Z,10.95
2023-02-17T00:40:38.846Z,13.52
2023-02-17T00:43:06.795Z,15.75
2023-02-17T00:45:34.724Z,11.48
2023-02-17T00:48:02.485Z,13.13
2023-02-17T00:50:30.265Z,18.27
2023-02-17T00:52:57.968Z,9.45
2023-02-17T00:55:27.062Z,13.27
2023-02-17T00:57:54.798Z,10.95
2023-02-17T01:00:22.749Z,13.30
2023-02-17T01:02:50.553Z,13.32
2023-02-17T01:05:18.353Z,10.70
2023-02-17T01:07:46.214Z,12.38
2023-02-17T01:10:14.222Z,13.77
2023-02-17T01:12:43.244Z,13.00
2023-02-17T01:15:11.316Z,14.68
2023-02-17T01:17:39.111Z,12.63
2023-02-17T01:20:08.307Z,16.33
2023-02-17T01:22:35.990Z,13.70
2023-02-17T01:25:04.065Z,12.57
2023-02-17T01:27:32.026Z,11.15
2023-02-17T01:30:01.212Z,11.63
2023-02-17T01:32:29.058Z,13.75
2023-02-17T01:34:56.835Z,13.05
2023-02-17T01:37:24.569Z,11.20
2023-02-17T01:39:52.334Z,11.55
2023-02-17T01:42:21.049Z,12.38
2023-02-17T01:45:31.133Z,9.88
2023-02-17T01:48:02.283Z,13.55
2023-02-17T01:50:34.925Z,11.38
2023-02-17T01:53:06.077Z,14.45
2023-02-17T01:55:34.834Z,12.15
2023-02-17T01:58:05.447Z,10.82
2023-02-17T02:00:37.328Z,12.43
2023-02-17T02:03:09.409Z,12.00
2023-02-17T02:05:38.497Z,9.65
2023-02-17T02:08:06.630Z,10.95
2023-02-17T02:10:34.432Z,8.98
2023-02-17T02:13:02.239Z,15.38
2023-02-17T02:15:38.586Z,15.20
2023-02-17T02:18:37.639Z,11.35
2023-02-17T02:21:38.686Z,10.48
2023-02-17T02:24:16.424Z,10.40
2023-02-17T02:27:31.147Z,11.50
2023-02-17T02:30:20.829Z,11.93
2023-02-17T02:32:59.099Z,11.68
2023-02-17T02:35:35.216Z,12.05
2023-02-17T02:38:07.756Z,8.60
2023-02-17T02:40:41.898Z,12.52
2023-02-17T02:43:10.164Z,11.52
2023-02-17T02:45:38.009Z,12.10
2023-02-17T02:48:07.144Z,12.38
2023-02-17T02:50:58.501Z,9.45
2023-02-17T02:53:49.857Z,16.20
2023-02-17T02:56:28.469Z,10.82
2023-02-17T02:59:06.318Z,11.82
2023-02-17T03:01:42.064Z,10.52
2023-02-17T03:04:16.350Z,10.40
2023-02-17T03:06:49.091Z,12.07
2023-02-17T03:09:22.068Z,15.30
2023-02-17T03:11:50.944Z,12.07
2023-02-17T03:14:21.782Z,10.10
2023-02-17T03:16:50.805Z,14.75
2023-02-17T03:19:23.093Z,11.23
2023-02-17T03:21:53.418Z,11.75
2023-02-17T03:24:21.704Z,13.43
2023-02-17T03:26:49.465Z,10.77
2023-02-17T03:29:17.236Z,8.85
2023-02-17T03:31:45.146Z,9.55
2023-02-17T03:34:13.034Z,10.70
2023-02-17T03:36:42.157Z,10.55
2023-02-17T03:39:09.927Z,13.25
2023-02-17T03:41:37.742Z,14.55
2023-02-17T03:44:05.792Z,8.38
2023-02-17T03:46:33.744Z,13.25
2023-02-17T03:49:01.502Z,9.90
2023-02-17T03:51:29.271Z,11.65
2023-02-17T03:53:58.497Z,7.20
2023-02-17T03:56:26.255Z,8.43
2023-02-17T03:58:53.995Z,8.50
2023-02-17T04:01:21.935Z,7.68
2023-02-17T04:03:49.907Z,8.35
2023-02-17T04:06:18.042Z,8.05
2023-02-17T04:08:45.752Z,12.13
2023-02-17T04:11:14.929Z,17.00
2023-02-17T04:13:42.693Z,9.98
2023-02-17T04:16:12.055Z,13.65
2023-02-17T04:18:40.147Z,10.40
2023-02-17T04:21:08.528Z,9.98
2023-02-17T04:23:37.036Z,8.80
2023-02-17T04:26:05.630Z,10.13
2023-02-17T04:28:34.993Z,14.70
2023-02-17T04:31:02.821Z,8.70
2023-02-17T04:33:30.884Z,7.03
2023-02-17T04:36:00.264Z,7.88
2023-02-17T04:38:28.483Z,12.50
2023-02-17T04:40:56.828Z,12.18
2023-02-17T04:43:24.905Z,8.30
2023-02-17T04:45:54.001Z,9.73
2023-02-17T04:48:21.798Z,9.70
2023-02-17T04:50:49.644Z,7.43
2023-02-17T04:53:17.580Z,8.70
2023-02-17T04:55:45.672Z,8.75
2023-02-17T04:58:13.424Z,10.55
2023-02-17T05:00:41.128Z,11.52
2023-02-17T05:03:10.190Z,8.60
2023-02-17T05:05:37.885Z,11.23
2023-02-17T05:08:05.851Z,10.40
2023-02-17T05:10:33.567Z,6.45
2023-02-17T05:13:01.260Z,11.18
2023-02-17T05:15:28.968Z,10.23
2023-02-17T05:17:56.679Z,7.07
2023-02-17T05:20:25.925Z,12.13
2023-02-17T05:22:53.653Z,8.93
2023-02-17T05:25:21.387Z,9.80
2023-02-17T05:27:49.167Z,7.63
2023-02-17T05:30:17.240Z,11.48
2023-02-17T05:32:45.084Z,6.90
2023-02-17T05:35:13.521Z,8.98
2023-02-17T05:37:42.660Z,13.85
2023-02-17T05:40:11.038Z,8.52
2023-02-17T05:42:38.827Z,8.88
2023-02-17T05:45:07.082Z,12.70
2023-02-17T05:47:35.459Z,7.68
2023-02-17T05:50:03.259Z,9.68
2023-02-17T05:52:30.974Z,10.00
2023-02-17T05:55:00.032Z,9.00
2023-02-17T05:57:27.893Z,12.13
2023-02-17T05:59:55.632Z,7.45
2023-02-17T06:02:23.383Z,10.05
2023-02-17T06:04:51.203Z,9.20
2023-02-17T06:07:18.941Z,7.68
2023-02-17T06:09:47.357Z,8.10
2023-02-17T06:12:16.566Z,7.10
2023-02-17T06:14:44.243Z,14.02
2023-02-17T06:17:11.987Z,11.20
2023-02-17T06:19:39.728Z,10.05
2023-02-17T06:22:07.441Z,12.27
2023-02-17T06:24:35.213Z,8.63
2023-02-17T06:27:03.359Z,10.55
2023-02-17T06:29:32.515Z,16.52
2023-02-17T06:32:00.310Z,13.20
2023-02-17T06:34:28.432Z,8.00
2023-02-17T06:36:56.610Z,12.82
2023-02-17T06:39:24.392Z,14.70
2023-02-17T06:41:52.189Z,15.80
2023-02-17T06:44:19.978Z,9.68
2023-02-17T06:46:49.121Z,15.65
2023-02-17T06:49:16.830Z,9.95
2023-02-17T06:51:44.588Z,9.07
2023-02-17T06:54:12.372Z,9.73
2023-02-17T06:56:40.130Z,11.65
2023-02-17T06:59:07.865Z,8.52
2023-02-17T07:01:35.570Z,10.30
2023-02-17T07:04:04.940Z,8.20
2023-02-17T07:06:32.700Z,7.53
2023-02-17T07:09:01.658Z,10.60
2023-02-17T07:11:31.329Z,6.70
2023-02-17T07:13:59.185Z,9.30
2023-02-17T07:16:27.301Z,8.80
2023-02-17T07:18:55.056Z,11.68
2023-02-17T07:21:24.213Z,11.55
2023-02-17T07:23:52.085Z,11.88
2023-02-17T07:26:19.838Z,9.30
2023-02-17T07:28:47.557Z,8.07
2023-02-17T07:31:17.637Z,10.55
2023-02-17T07:33:47.982Z,7.15
2023-02-17T07:36:17.457Z,7.47
2023-02-17T07:38:46.504Z,7.40
2023-02-17T07:41:16.031Z,7.25
2023-02-17T07:43:44.196Z,8.30
2023-02-17T07:46:12.833Z,7.00
2023-02-17T07:48:40.599Z,8.45
2023-02-17T07:51:09.751Z,12.38
2023-02-17T07:53:38.446Z,10.93
2023-02-17T07:56:09.339Z,8.10
2023-02-17T07:58:38.938Z,7.80
2023-02-17T08:01:07.771Z,9.60
2023-02-17T08:03:35.775Z,6.95
2023-02-17T08:06:04.413Z,7.97
2023-02-17T08:08:50.132Z,8.38
2023-02-17T08:11:36.889Z,11.07
2023-02-17T08:14:04.738Z,7.72
2023-02-17T08:16:32.504Z,10.15
2023-02-17T08:19:00.313Z,8.75
2023-02-17T08:21:28.803Z,9.90
2023-02-17T08:23:56.790Z,13.52
2023-02-17T08:26:26.299Z,12.35
2023-02-17T08:28:54.002Z,10.85
2023-02-17T08:31:25.324Z,5.97
2023-02-17T08:33:53.361Z,9.07
2023-02-17T08:36:22.247Z,8.45
2023-02-17T08:38:51.233Z,7.68
2023-02-17T08:41:22.538Z,10.27
2023-02-17T08:43:51.829Z,9.20
2023-02-17T08:46:21.896Z,4.75
2023-02-17T08:48:50.064Z,8.00
2023-02-17T08:51:23.318Z,5.72
2023-02-17T08:53:51.559Z,5.70
2023-02-17T08:56:19.346Z,7.40
2023-02-17T08:58:47.273Z,8.50
2023-02-17T09:01:19.536Z,7.95
2023-02-17T09:03:50.935Z,5.30
2023-02-17T09:06:20.765Z,8.43
2023-02-17T09:08:50.421Z,10.40
2023-02-17T09:11:21.208Z,7.97
2023-02-17T09:13:51.081Z,6.80
2023-02-17T09:16:24.831Z,4.00
2023-02-17T09:18:55.356Z,5.60
2023-02-17T09:21:26.322Z,7.43
2023-02-17T09:23:56.141Z,9.35
2023-02-17T09:26:26.190Z,7.60
2023-02-17T09:28:55.967Z,7.03
2023-02-17T09:31:29.701Z,7.88
2023-02-17T09:34:00.053Z,5.28
2023-02-17T09:36:33.290Z,5.63
2023-02-17T09:39:03.592Z,6.22
2023-02-17T09:41:39.865Z,6.78
2023-02-17T09:44:24.782Z,4.28
2023-02-17T09:47:04.171Z,4.93
2023-02-17T09:49:40.782Z,6.53
2023-02-17T09:52:16.649Z,5.90
2023-02-17T09:54:56.455Z,5.28
2023-02-17T09:57:31.140Z,8.70
2023-02-17T10:00:03.824Z,5.63
2023-02-17T10:02:37.522Z,8.63
2023-02-17T10:05:11.617Z,5.65
2023-02-17T10:07:44.675Z,7.57
2023-02-17T10:10:17.271Z,4.70
2023-02-17T10:12:49.615Z,5.60
2023-02-17T10:15:23.520Z,4.15
2023-02-17T10:17:58.842Z,5.22
2023-02-17T10:20:32.555Z,4.65
2023-02-17T10:23:07.098Z,7.75
2023-02-17T10:25:52.153Z,3.78
2023-02-17T10:28:28.496Z,5.88
2023-02-17T10:31:04.033Z,5.72
2023-02-17T10:33:37.966Z,4.45
2023-02-17T10:36:18.269Z,7.90
2023-02-17T10:38:51.903Z,5.45
2023-02-17T10:41:24.818Z,4.22
2023-02-17T10:43:52.937Z,3.80
2023-02-17T10:46:29.469Z,3.72
2023-02-17T10:49:00.466Z,6.28
2023-02-17T10:51:30.562Z,5.10
2023-02-17T10:54:03.607Z,5.47
2023-02-17T10:56:39.126Z,5.75
2023-02-17T10:59:12.979Z,3.42
2023-02-17T11:01:41.106Z,4.50
2023-02-17T11:04:13.848Z,4.97
2023-02-17T11:06:44.665Z,4.05
2023-02-17T11:09:21.707Z,5.47
2023-02-17T11:11:54.179Z,5.88
2023-02-17T11:14:26.892Z,4.40
2023-02-17T11:16:59.164Z,5.07
2023-02-17T11:19:30.237Z,4.72
2023-02-17T11:22:00.369Z,5.78
2023-02-17T11:24:30.160Z,5.00
2023-02-17T11:26:59.889Z,3.00
2023-02-17T11:29:28.513Z,6.30
2023-02-17T11:31:58.694Z,2.92
2023-02-17T11:34:30.252Z,3.17
2023-02-17T11:37:01.426Z,3.50
2023-02-17T11:39:29.628Z,4.78
2023-02-17T11:41:57.617Z,5.47
2023-02-17T11:44:26.992Z,5.32
2023-02-17T11:47:05.652Z,5.40
2023-02-17T11:49:55.943Z,7.38
2023-02-17T11:52:44.138Z,3.63
2023-02-17T11:55:27.679Z,2.83
2023-02-17T11:58:08.087Z,2.25
2023-02-17T12:00:44.678Z,2.90
2023-02-17T12:03:57.113Z,2.60
2023-02-17T12:06:39.722Z,2.63
2023-02-17T12:09:18.181Z,3.63
2023-02-17T12:11:52.499Z,3.10
2023-02-17T12:14:50.239Z,3.30
2023-02-17T12:17:25.132Z,2.67
2023-02-17T12:19:58.727Z,3.53
2023-02-17T12:22:36.743Z,3.97
2023-02-17T12:25:16.077Z,3.30
2023-02-17T12:27:54.301Z,7.88
2023-02-17T12:30:34.327Z,4.20
2023-02-17T12:33:15.211Z,5.00
2023-02-17T12:35:52.638Z,2.72
2023-02-17T12:38:26.693Z,3.00
2023-02-17T12:40:59.574Z,2.33
2023-02-17T12:43:32.521Z,2.25
2023-02-17T12:46:04.397Z,2.33
2023-02-17T12:48:37.733Z,1.45
2023-02-17T12:51:10.150Z,4.00
2023-02-17T12:53:49.573Z,3.42
2023-02-17T12:56:50.823Z,2.13
2023-02-17T12:59:21.122Z,1.65
2023-02-17T13:02:00.625Z,4.22
2023-02-17T13:04:30.670Z,4.75
2023-02-17T13:07:09.473Z,3.15
2023-02-17T13:09:41.420Z,2.53
2023-02-17T13:12:29.952Z,3.75
2023-02-17T13:14:59.521Z,6.60
2023-02-17T13:17:29.584Z,2.67
2023-02-17T13:20:45.475Z,2.33
2023-02-17T13:23:15.359Z,3.42
2023-02-17T13:25:44.457Z,2.05
2023-02-17T13:28:36.262Z,4.82
2023-02-17T13:31:14.103Z,1.92
2023-02-17T13:33:45.420Z,6.05
2023-02-17T13:36:20.454Z,1.55
2023-02-17T13:38:59.648Z,1.65
2023-02-17T13:41:30.100Z,2.45
2023-02-17T13:43:57.964Z,3.25
2023-02-17T13:46:28.058Z,5.07
2023-02-17T13:49:04.653Z,2.67
2023-02-17T13:51:34.360Z,2.47
2023-02-17T13:54:10.385Z,4.75
2023-02-17T13:59:10.148Z,7.32
2023-02-17T14:01:41.535Z,5.47
2023-02-17T14:04:23.463Z,5.78
2023-02-17T14:06:52.554Z,3.00
2023-02-17T14:09:26.086Z,8.60
2023-02-17T14:11:56.316Z,3.58
2023-02-17T14:14:27.075Z,4.07
2023-02-17T14:17:03.082Z,6.78
2023-02-17T14:22:03.980Z,4.13
2023-02-17T14:24:34.146Z,5.00
2023-02-17T14:27:08.101Z,4.88
2023-02-17T14:29:43.572Z,8.60
2023-02-17T14:32:26.987Z,5.30
2023-02-17T14:34:54.814Z,5.82
2023-02-17T14:37:25.819Z,6.28
2023-02-17T14:39:53.542Z,6.75
2023-02-17T14:42:22.584Z,3.28
2023-02-17T14:44:50.356Z,6.32
2023-02-17T14:47:18.053Z,13.65
2023-02-17T14:49:45.774Z,10.80
2023-02-17T14:52:20.177Z,7.75
2023-02-17T14:54:48.868Z,7.80
2023-02-17T14:57:17.690Z,4.22
2023-02-17T14:59:46.830Z,4.68
2023-02-17T15:02:16.283Z,4.82
2023-02-17T15:04:44.277Z,3.90
2023-02-17T15:07:14.996Z,4.68
2023-02-17T15:09:44.723Z,4.05
2023-02-17T15:12:17.012Z,4.60
2023-02-17T15:14:46.798Z,7.50
2023-02-17T15:17:14.614Z,4.00
2023-02-17T15:19:44.676Z,6.82
2023-02-17T15:22:13.652Z,6.55
2023-02-17T15:24:41.906Z,6.65
2023-02-17T15:27:18.338Z,5.45
2023-02-17T15:29:48.048Z,6.53
2023-02-17T15:32:19.399Z,6.03
2023-02-17T15:34:47.374Z,6.57
2023-02-17T15:37:15.085Z,6.57
2023-02-17T15:39:42.760Z,5.05
2023-02-17T15:42:14.267Z,6.03
2023-02-17T15:44:45.223Z,8.68
2023-02-17T15:47:17.001Z,5.55
2023-02-17T15:49:45.819Z,7.32
2023-02-17T15:52:14.688Z,6.85
2023-02-17T15:54:43.582Z,4.72
2023-02-17T15:57:20.793Z,7.75
2023-02-17T15:59:48.806Z,12.55
2023-02-17T16:02:21.866Z,7.28
2023-02-17T16:04:50.073Z,8.40
2023-02-17T16:07:18.031Z,6.75
2023-02-17T16:09:45.961Z,6.47
2023-02-17T16:12:18.878Z,8.93
2023-02-17T16:14:46.825Z,9.38
2023-02-17T16:17:16.765Z,7.30
2023-02-17T16:19:46.022Z,6.18
2023-02-17T16:22:14.256Z,7.13
2023-02-17T16:24:42.029Z,9.98
2023-02-17T16:27:12.830Z,9.77
2023-02-17T16:29:41.252Z,7.30
2023-02-17T16:32:11.260Z,7.45
2023-02-17T16:34:39.140Z,9.32
2023-02-17T16:37:15.855Z,12.07
2023-02-17T16:39:44.650Z,6.85
2023-02-17T16:42:14.816Z,10.00
2023-02-17T16:44:42.931Z,5.72
2023-02-17T16:47:20.284Z,9.40
2023-02-17T16:49:50.206Z,8.32
2023-02-17T16:52:26.135Z,10.07
2023-02-17T16:57:22.441Z,12.32
2023-02-17T16:59:50.337Z,9.30
2023-02-17T17:02:19.818Z,10.57
2023-02-17T17:04:48.635Z,12.93
2023-02-17T17:07:16.343Z,10.90
2023-02-17T17:10:00.833Z,9.60
2023-02-17T17:12:33.182Z,11.10
2023-02-17T17:15:01.241Z,8.70
2023-02-17T17:17:29.824Z,8.15
2023-02-17T17:19:57.770Z,10.15
2023-02-17T17:22:25.882Z,10.27
2023-02-17T17:24:55.264Z,9.25
2023-02-17T17:27:23.275Z,11.00
2023-02-17T17:29:51.641Z,11.07
2023-02-17T17:32:19.473Z,10.65
2023-02-17T17:34:47.388Z,8.70
2023-02-17T17:37:15.358Z,6.88
2023-02-17T17:39:43.229Z,10.32
2023-02-17T17:42:13.000Z,9.95
2023-02-17T17:44:40.723Z,8.00
2023-02-17T17:47:21.316Z,10.48
2023-02-17T17:49:56.141Z,11.30
2023-02-17T17:52:24.173Z,10.70
2023-02-17T17:54:52.191Z,13.68
2023-02-17T17:57:22.489Z,9.20
2023-02-17T17:59:50.728Z,13.30
2023-02-17T18:02:18.678Z,11.70
2023-02-17T18:04:46.597Z,16.80
2023-02-17T18:07:14.598Z,6.32
2023-02-17T18:09:43.303Z,4.65
2023-02-17T18:12:13.330Z,6.95
2023-02-17T18:14:45.309Z,7.53
2023-02-17T18:17:15.226Z,6.35
2023-02-17T18:19:43.438Z,7.82
2023-02-17T18:22:11.309Z,7.28
2023-02-17T18:24:39.758Z,7.43
2023-02-17T18:27:07.687Z,6.05
2023-02-17T18:29:35.532Z,5.03
2023-02-17T18:32:04.954Z,8.05
2023-02-17T18:34:32.905Z,6.03
2023-02-17T18:37:00.797Z,5.57
2023-02-17T18:39:28.799Z,4.35
2023-02-17T18:41:56.661Z,5.47
2023-02-17T18:44:24.574Z,4.90
2023-02-17T18:46:52.661Z,4.45
2023-02-17T18:49:21.952Z,5.25
2023-02-17T18:51:49.897Z,4.00
2023-02-17T18:54:17.856Z,3.50
2023-02-17T18:56:45.820Z,6.03
2023-02-17T18:59:13.672Z,4.85
2023-02-17T19:01:43.124Z,5.03
2023-02-17T19:04:11.805Z,2.85
2023-02-17T19:06:41.174Z,4.15
2023-02-17T19:09:09.535Z,4.57
2023-02-17T19:11:37.372Z,6.38
2023-02-17T19:14:05.163Z,2.97
2023-02-17T19:16:33.670Z,5.95
2023-02-17T19:19:02.240Z,3.28
2023-02-17T19:21:30.169Z,4.65
2023-02-17T19:23:59.242Z,4.43
2023-02-17T19:26:27.355Z,6.90
2023-02-17T19:28:55.256Z,3.05
2023-02-17T19:31:24.168Z,4.63
2023-02-17T19:33:51.970Z,5.10
2023-02-17T19:36:22.176Z,3.35
2023-02-17T19:38:51.464Z,4.43
2023-02-17T19:41:20.889Z,4.00
2023-02-17T19:43:49.210Z,4.07
2023-02-17T19:46:19.743Z,4.57
2023-02-17T19:48:47.657Z,4.85
2023-02-17T19:51:15.529Z,6.88
2023-02-17T19:53:44.217Z,9.38
2023-02-17T19:56:14.288Z,5.93
2023-02-17T19:58:45.274Z,6.07
2023-02-17T20:01:15.607Z,5.30
2023-02-17T20:03:44.516Z,3.78
2023-02-17T20:06:16.526Z,5.50
2023-02-17T20:08:45.164Z,4.05
2023-02-17T20:11:13.592Z,5.32
2023-02-17T20:13:46.843Z,7.18
2023-02-17T20:16:16.950Z,6.22
2023-02-17T20:18:46.489Z,5.15
2023-02-17T20:21:15.656Z,5.97
2023-02-17T20:23:43.597Z,7.07
2023-02-17T20:26:13.879Z,5.43
2023-02-17T20:28:43.389Z,7.95
2023-02-17T20:31:11.558Z,6.20
2023-02-17T20:33:39.961Z,4.13
2023-02-17T20:36:09.877Z,6.40
2023-02-17T20:38:38.282Z,5.20
2023-02-17T20:41:06.603Z,8.73
2023-02-17T20:43:34.851Z,5.55
2023-02-17T20:46:04.419Z,4.88
2023-02-17T20:48:32.400Z,5.85
2023-02-17T20:51:00.216Z,8.55
2023-02-17T20:53:29.062Z,5.43
2023-02-17T20:55:56.872Z,4.90
2023-02-17T20:58:24.952Z,5.40
2023-02-17T21:00:52.697Z,5.85
2023-02-17T21:03:21.806Z,6.25
2023-02-17T21:05:49.681Z,3.92
2023-02-17T21:08:17.503Z,6.15
2023-02-17T21:10:45.485Z,5.43
2023-02-17T21:13:13.273Z,5.35
2023-02-17T21:15:41.125Z,4.88
2023-02-17T21:18:09.696Z,9.98
2023-02-17T21:20:38.769Z,7.25
2023-02-17T21:23:06.769Z,8.23
2023-02-17T21:25:34.802Z,5.60
2023-02-17T21:28:02.737Z,5.97
2023-02-17T21:30:30.505Z,9.45
2023-02-17T21:32:58.525Z,8.90
2023-02-17T21:35:26.414Z,8.30
2023-02-17T21:37:55.700Z,6.20
2023-02-17T21:40:23.572Z,5.65
2023-02-17T21:43:08.877Z,5.80
2023-02-17T21:45:38.872Z,6.28
2023-02-17T21:48:07.106Z,5.32
2023-02-17T21:50:34.907Z,6.03
2023-02-17T21:53:04.098Z,7.30
2023-02-17T21:55:32.752Z,8.85
2023-02-17T21:58:01.258Z,5.93
2023-02-17T22:00:28.992Z,7.32
2023-02-17T22:02:56.788Z,6.97
2023-02-17T22:05:24.647Z,6.75
2023-02-17T22:07:52.615Z,5.35
2023-02-17T22:10:21.761Z,8.68
2023-02-17T22:12:52.028Z,5.32
2023-02-17T22:15:20.597Z,6.80
2023-02-17T22:17:48.342Z,6.03
2023-02-17T22:20:16.473Z,6.32
2023-02-17T22:22:44.225Z,7.47
2023-02-17T22:25:12.282Z,4.65
2023-02-17T22:27:41.586Z,6.38
2023-02-17T22:30:10.332Z,5.72
2023-02-17T22:32:38.529Z,6.10
2023-02-17T22:35:06.818Z,5.40
2023-02-17T22:37:34.537Z,4.75
2023-02-17T22:40:04.020Z,5.78
2023-02-17T22:42:31.782Z,5.25
2023-02-17T22:45:01.004Z,5.50
2023-02-17T22:47:28.837Z,4.55
2023-02-17T22:49:56.769Z,7.20
2023-02-17T22:52:24.573Z,5.80
2023-02-17T22:54:52.416Z,7.82
2023-02-17T22:57:20.138Z,6.60
2023-02-17T22:59:48.166Z,3.75
2023-02-17T23:02:17.328Z,5.60
2023-02-17T23:04:45.495Z,4.35
2023-02-17T23:07:13.273Z,5.10
2023-02-17T23:09:40.992Z,8.85
2023-02-17T23:12:08.818Z,4.63
2023-02-17T23:14:37.863Z,4.75
2023-02-17T23:17:07.424Z,5.72
2023-02-17T23:19:37.498Z,4.43
2023-02-17T23:22:08.170Z,4.30
2023-02-17T23:24:36.732Z,5.18
2023-02-17T23:27:05.220Z,5.97
2023-02-17T23:29:33.524Z,6.22
2023-02-17T23:32:01.365Z,3.97
2023-02-17T23:34:29.293Z,4.97
2023-02-17T23:36:58.649Z,4.15
2023-02-17T23:39:26.504Z,3.80
2023-02-17T23:41:54.299Z,4.75
2023-02-17T23:44:22.018Z,4.07
2023-02-17T23:46:49.789Z,5.72
2023-02-17T23:49:18.096Z,5.07
2023-02-17T23:51:47.056Z,5.70
2023-02-17T23:54:16.588Z,4.07
2023-02-17T23:56:44.666Z,4.20
2023-02-17T23:59:12.638Z,5.97
